WZZ3558 LROP-LBSF
Flight info
| Callsign | WZZ3558 |
|---|---|
| Flight time | 1h 12m |
| Altitude | 32000 |
| Route | POLUN DCT TIMUR/N0434F310 N181 GOL |
| Aircraft | A20N/M-SDE2E3FGHIRWXY/LB1 |
Departure
| Time | 2026-04-30 19:55 |
|---|---|
| Airport | Bucharest Henri Coandă International Airport (LROP) |
Arrival
| Time | 2026-04-30 21:07 |
|---|---|
| Airport | Sofia Airport (LBSF) |
| Time | Latitude | Longitude | Altitude | Speed | Heading |
|---|---|---|---|---|---|
| 2026-04-30 19:18 | 44.56861 | 26.08121 | 315 ft | 0 kts | 353° |
| 2026-04-30 19:47 | 44.56862 | 26.08121 | 316 ft | 3 kts | 353° |
| 2026-04-30 19:48 | 44.56908 | 26.08113 | 317 ft | 5 kts | 355° |
| 2026-04-30 19:48 | 44.56926 | 26.08120 | 317 ft | 1 kts | 28° |
| 2026-04-30 19:48 | 44.56927 | 26.08121 | 317 ft | 0 kts | 29° |
| 2026-04-30 19:49 | 44.56930 | 26.08124 | 317 ft | 4 kts | 32° |
| 2026-04-30 19:49 | 44.56967 | 26.08197 | 318 ft | 10 kts | 78° |
| 2026-04-30 19:50 | 44.56952 | 26.08266 | 317 ft | 6 kts | 105° |
| 2026-04-30 19:50 | 44.56958 | 26.08352 | 318 ft | 12 kts | 66° |
| 2026-04-30 19:50 | 44.57014 | 26.08388 | 317 ft | 7 kts | 357° |
| 2026-04-30 19:50 | 44.57049 | 26.08384 | 318 ft | 6 kts | 355° |
| 2026-04-30 19:51 | 44.57105 | 26.08375 | 320 ft | 8 kts | 354° |
| 2026-04-30 19:51 | 44.57155 | 26.08367 | 321 ft | 11 kts | 353° |
| 2026-04-30 19:51 | 44.57214 | 26.08378 | 321 ft | 6 kts | 39° |
| 2026-04-30 19:51 | 44.57227 | 26.08418 | 321 ft | 3 kts | 78° |
| 2026-04-30 19:52 | 44.57242 | 26.08483 | 320 ft | 8 kts | 47° |
| 2026-04-30 19:52 | 44.57281 | 26.08494 | 322 ft | 5 kts | 359° |
| 2026-04-30 19:52 | 44.57343 | 26.08487 | 322 ft | 13 kts | 354° |
| 2026-04-30 19:52 | 44.57432 | 26.08476 | 320 ft | 11 kts | 355° |
| 2026-04-30 19:53 | 44.57499 | 26.08466 | 321 ft | 8 kts | 353° |
| 2026-04-30 19:53 | 44.57501 | 26.08465 | 321 ft | 0 kts | 353° |
| 2026-04-30 19:54 | 44.57516 | 26.08463 | 324 ft | 15 kts | 353° |
| 2026-04-30 19:54 | 44.57616 | 26.08450 | 325 ft | 12 kts | 1° |
| 2026-04-30 19:54 | 44.57668 | 26.08505 | 323 ft | 8 kts | 73° |
| 2026-04-30 19:54 | 44.57677 | 26.08654 | 325 ft | 39 kts | 85° |
| 2026-04-30 19:55 | 44.57738 | 26.09344 | 319 ft | 103 kts | 84° |
| 2026-04-30 19:55 | 44.57844 | 26.10603 | 498 ft | 141 kts | 78° |
| 2026-04-30 19:55 | 44.57943 | 26.12046 | 1016 ft | 157 kts | 83° |
| 2026-04-30 19:55 | 44.57978 | 26.13656 | 1478 ft | 177 kts | 86° |
| 2026-04-30 19:56 | 44.58069 | 26.15497 | 1808 ft | 200 kts | 79° |
| 2026-04-30 19:56 | 44.58257 | 26.17546 | 2215 ft | 221 kts | 79° |
| 2026-04-30 19:56 | 44.58455 | 26.19742 | 2909 ft | 230 kts | 81° |
| 2026-04-30 19:56 | 44.58641 | 26.21968 | 3825 ft | 230 kts | 81° |
| 2026-04-30 19:57 | 44.58823 | 26.24230 | 4559 ft | 238 kts | 82° |
| 2026-04-30 19:57 | 44.59008 | 26.26589 | 5244 ft | 247 kts | 83° |
| 2026-04-30 19:57 | 44.59033 | 26.29024 | 6010 ft | 254 kts | 97° |
| 2026-04-30 19:57 | 44.58434 | 26.31374 | 6819 ft | 261 kts | 121° |
| 2026-04-30 19:58 | 44.57118 | 26.33167 | 7573 ft | 270 kts | 150° |
| 2026-04-30 19:58 | 44.55322 | 26.33984 | 8365 ft | 275 kts | 170° |
| 2026-04-30 19:58 | 44.53415 | 26.34294 | 9285 ft | 276 kts | 175° |
| 2026-04-30 19:58 | 44.51495 | 26.34527 | 10227 ft | 277 kts | 176° |
| 2026-04-30 19:59 | 44.49543 | 26.34766 | 10847 ft | 290 kts | 175° |
| 2026-04-30 19:59 | 44.47479 | 26.35037 | 11173 ft | 312 kts | 176° |
| 2026-04-30 19:59 | 44.42911 | 26.35585 | 12064 ft | 342 kts | 182° |
| 2026-04-30 20:00 | 44.40544 | 26.35210 | 12793 ft | 345 kts | 195° |
| 2026-04-30 20:00 | 44.38318 | 26.33910 | 13467 ft | 350 kts | 213° |
| 2026-04-30 20:00 | 44.36464 | 26.31738 | 14340 ft | 350 kts | 229° |
| 2026-04-30 20:00 | 44.35144 | 26.28886 | 15049 ft | 352 kts | 246° |
| 2026-04-30 20:01 | 44.33664 | 26.22360 | 16663 ft | 351 kts | 254° |
| 2026-04-30 20:01 | 44.33017 | 26.19084 | 17488 ft | 350 kts | 254° |
| 2026-04-30 20:01 | 44.32363 | 26.15816 | 18272 ft | 349 kts | 254° |
| 2026-04-30 20:02 | 44.31030 | 26.09284 | 19551 ft | 351 kts | 253° |
| 2026-04-30 20:02 | 44.30351 | 26.05998 | 20093 ft | 353 kts | 253° |
| 2026-04-30 20:03 | 44.28979 | 25.99387 | 21277 ft | 356 kts | 253° |
| 2026-04-30 20:03 | 44.28285 | 25.96058 | 21855 ft | 357 kts | 253° |
| 2026-04-30 20:03 | 44.27590 | 25.92726 | 22412 ft | 359 kts | 252° |
| 2026-04-30 20:03 | 44.26889 | 25.89375 | 22953 ft | 360 kts | 252° |
| 2026-04-30 20:04 | 44.26183 | 25.86007 | 23478 ft | 362 kts | 252° |
| 2026-04-30 20:04 | 44.25476 | 25.82634 | 23970 ft | 363 kts | 252° |
| 2026-04-30 20:04 | 44.24785 | 25.79284 | 24393 ft | 364 kts | 254° |
| 2026-04-30 20:05 | 44.24139 | 25.72244 | 25281 ft | 369 kts | 265° |
| 2026-04-30 20:05 | 44.24105 | 25.68662 | 25729 ft | 369 kts | 266° |
| 2026-04-30 20:05 | 44.24074 | 25.61498 | 26569 ft | 369 kts | 265° |
| 2026-04-30 20:06 | 44.24053 | 25.57914 | 26978 ft | 370 kts | 265° |
| 2026-04-30 20:06 | 44.24029 | 25.54319 | 27245 ft | 372 kts | 265° |
| 2026-04-30 20:06 | 44.24002 | 25.50720 | 27279 ft | 371 kts | 265° |
| 2026-04-30 20:06 | 44.23974 | 25.47118 | 27290 ft | 372 kts | 265° |
| 2026-04-30 20:07 | 44.23945 | 25.43515 | 27289 ft | 372 kts | 265° |
| 2026-04-30 20:07 | 44.23914 | 25.39909 | 27291 ft | 372 kts | 265° |
| 2026-04-30 20:07 | 44.23848 | 25.32687 | 27293 ft | 373 kts | 265° |
| 2026-04-30 20:08 | 44.23735 | 25.29081 | 27292 ft | 372 kts | 261° |
| 2026-04-30 20:08 | 44.23341 | 25.25527 | 27294 ft | 369 kts | 255° |
| 2026-04-30 20:08 | 44.22612 | 25.22103 | 27293 ft | 368 kts | 249° |
| 2026-04-30 20:08 | 44.21554 | 25.18857 | 27296 ft | 368 kts | 242° |
| 2026-04-30 20:09 | 44.20190 | 25.15830 | 27297 ft | 370 kts | 237° |
| 2026-04-30 20:09 | 44.18682 | 25.12925 | 27295 ft | 370 kts | 236° |
| 2026-04-30 20:09 | 44.15537 | 25.07243 | 27297 ft | 371 kts | 234° |
| 2026-04-30 20:10 | 44.12371 | 25.01611 | 27300 ft | 371 kts | 234° |
| 2026-04-30 20:10 | 44.10783 | 24.98769 | 27302 ft | 371 kts | 235° |
| 2026-04-30 20:10 | 44.09201 | 24.95925 | 27297 ft | 371 kts | 235° |
| 2026-04-30 20:11 | 44.06047 | 24.90233 | 27298 ft | 371 kts | 235° |
| 2026-04-30 20:11 | 44.04472 | 24.87390 | 27298 ft | 371 kts | 235° |
| 2026-04-30 20:11 | 44.02895 | 24.84545 | 27296 ft | 371 kts | 235° |
| 2026-04-30 20:12 | 43.99758 | 24.78894 | 27301 ft | 371 kts | 235° |
| 2026-04-30 20:12 | 43.98174 | 24.76048 | 27301 ft | 371 kts | 235° |
| 2026-04-30 20:12 | 43.96594 | 24.73212 | 27301 ft | 371 kts | 235° |
| 2026-04-30 20:13 | 43.95014 | 24.70379 | 27300 ft | 371 kts | 235° |
| 2026-04-30 20:13 | 43.93428 | 24.67537 | 27318 ft | 371 kts | 235° |
| 2026-04-30 20:13 | 43.91846 | 24.64704 | 27302 ft | 372 kts | 235° |
| 2026-04-30 20:13 | 43.90257 | 24.61862 | 27300 ft | 373 kts | 235° |
| 2026-04-30 20:14 | 43.88665 | 24.59019 | 27300 ft | 373 kts | 235° |
| 2026-04-30 20:14 | 43.87068 | 24.56170 | 27300 ft | 373 kts | 235° |
| 2026-04-30 20:14 | 43.85476 | 24.53331 | 27282 ft | 373 kts | 235° |
| 2026-04-30 20:14 | 43.83883 | 24.50493 | 27305 ft | 373 kts | 235° |
| 2026-04-30 20:15 | 43.82311 | 24.47697 | 27302 ft | 373 kts | 235° |
| 2026-04-30 20:15 | 43.80717 | 24.44863 | 27304 ft | 373 kts | 234° |
| 2026-04-30 20:15 | 43.79120 | 24.42027 | 27303 ft | 373 kts | 235° |
| 2026-04-30 20:15 | 43.77525 | 24.39195 | 27301 ft | 373 kts | 234° |
| 2026-04-30 20:16 | 43.75928 | 24.36365 | 27303 ft | 373 kts | 234° |
| 2026-04-30 20:16 | 43.74332 | 24.33539 | 27304 ft | 373 kts | 234° |
| 2026-04-30 20:16 | 43.72727 | 24.30717 | 27303 ft | 374 kts | 233° |
| 2026-04-30 20:16 | 43.70913 | 24.28126 | 27290 ft | 378 kts | 225° |
| 2026-04-30 20:17 | 43.68759 | 24.25986 | 27301 ft | 385 kts | 216° |
| 2026-04-30 20:17 | 43.66284 | 24.24477 | 27300 ft | 395 kts | 204° |
| 2026-04-30 20:17 | 43.63549 | 24.23749 | 27305 ft | 407 kts | 193° |
| 2026-04-30 20:17 | 43.60699 | 24.23559 | 27304 ft | 412 kts | 190° |
| 2026-04-30 20:18 | 43.57831 | 24.23489 | 27249 ft | 410 kts | 189° |
| 2026-04-30 20:18 | 43.55015 | 24.23437 | 26944 ft | 398 kts | 190° |
| 2026-04-30 20:18 | 43.52290 | 24.23380 | 26570 ft | 388 kts | 190° |
| 2026-04-30 20:18 | 43.49607 | 24.23308 | 25975 ft | 385 kts | 190° |
| 2026-04-30 20:19 | 43.46969 | 24.23228 | 25387 ft | 383 kts | 190° |
| 2026-04-30 20:19 | 43.45173 | 24.23173 | 25014 ft | 381 kts | 190° |
| 2026-04-30 20:19 | 43.41670 | 24.23062 | 24225 ft | 379 kts | 189° |
| 2026-04-30 20:19 | 43.39035 | 24.22979 | 23621 ft | 378 kts | 189° |
| 2026-04-30 20:20 | 43.36412 | 24.22896 | 22992 ft | 375 kts | 189° |
| 2026-04-30 20:20 | 43.33812 | 24.22816 | 22396 ft | 372 kts | 189° |
| 2026-04-30 20:20 | 43.31236 | 24.22736 | 21806 ft | 369 kts | 189° |
| 2026-04-30 20:20 | 43.28674 | 24.22656 | 21261 ft | 366 kts | 188° |
| 2026-04-30 20:21 | 43.26131 | 24.22576 | 20739 ft | 363 kts | 188° |
| 2026-04-30 20:21 | 43.23641 | 24.22499 | 20217 ft | 361 kts | 188° |
| 2026-04-30 20:21 | 43.21145 | 24.22421 | 19667 ft | 358 kts | 188° |
| 2026-04-30 20:21 | 43.18659 | 24.22343 | 19140 ft | 356 kts | 188° |
| 2026-04-30 20:22 | 43.16194 | 24.22266 | 18623 ft | 353 kts | 187° |
| 2026-04-30 20:22 | 43.13749 | 24.22172 | 18013 ft | 349 kts | 189° |
| 2026-04-30 20:22 | 43.11386 | 24.21670 | 17378 ft | 339 kts | 201° |
| 2026-04-30 20:22 | 43.09244 | 24.20428 | 16738 ft | 331 kts | 215° |
| 2026-04-30 20:23 | 43.07455 | 24.18497 | 16077 ft | 326 kts | 229° |
| 2026-04-30 20:23 | 43.05973 | 24.16172 | 15476 ft | 323 kts | 233° |
| 2026-04-30 20:23 | 43.04576 | 24.13779 | 14847 ft | 322 kts | 234° |
| 2026-04-30 20:23 | 43.03184 | 24.11375 | 14246 ft | 322 kts | 234° |
| 2026-04-30 20:24 | 43.02263 | 24.09791 | 13850 ft | 322 kts | 234° |
| 2026-04-30 20:24 | 43.00868 | 24.07402 | 13191 ft | 321 kts | 233° |
| 2026-04-30 20:24 | 42.99476 | 24.05028 | 12563 ft | 320 kts | 233° |
| 2026-04-30 20:24 | 42.98082 | 24.02659 | 11948 ft | 319 kts | 233° |
| 2026-04-30 20:25 | 42.95314 | 23.97967 | 10785 ft | 316 kts | 233° |
| 2026-04-30 20:25 | 42.93937 | 23.95636 | 10219 ft | 315 kts | 233° |
| 2026-04-30 20:26 | 42.91271 | 23.91137 | 9665 ft | 291 kts | 233° |
| 2026-04-30 20:26 | 42.88834 | 23.87032 | 9275 ft | 266 kts | 233° |
| 2026-04-30 20:26 | 42.87693 | 23.85110 | 9051 ft | 257 kts | 234° |
| 2026-04-30 20:27 | 42.85458 | 23.81355 | 8230 ft | 255 kts | 232° |
| 2026-04-30 20:27 | 42.82423 | 23.78832 | 7241 ft | 266 kts | 192° |
| 2026-04-30 20:28 | 42.78749 | 23.78490 | 6429 ft | 266 kts | 169° |
| 2026-04-30 20:28 | 42.75884 | 23.81118 | 5923 ft | 250 kts | 111° |
| 2026-04-30 20:29 | 42.75224 | 23.85650 | 5951 ft | 244 kts | 90° |
| 2026-04-30 20:30 | 42.74851 | 23.92200 | 5951 ft | 228 kts | 89° |
| 2026-04-30 20:30 | 42.72548 | 23.97650 | 5952 ft | 244 kts | 160° |
| 2026-04-30 20:31 | 42.67678 | 23.96889 | 5644 ft | 239 kts | 221° |
| 2026-04-30 20:32 | 42.66491 | 23.91003 | 4123 ft | 216 kts | 281° |
| 2026-04-30 20:32 | 42.66806 | 23.86957 | 3938 ft | 218 kts | 278° |
| 2026-04-30 20:33 | 42.66955 | 23.84906 | 3900 ft | 217 kts | 281° |
| 2026-04-30 20:33 | 42.67238 | 23.80823 | 3939 ft | 216 kts | 279° |
| 2026-04-30 20:33 | 42.67362 | 23.78792 | 3935 ft | 216 kts | 279° |
| 2026-04-30 20:34 | 42.67620 | 23.74726 | 3940 ft | 217 kts | 279° |
| 2026-04-30 20:34 | 42.67875 | 23.70641 | 3948 ft | 217 kts | 278° |
| 2026-04-30 20:35 | 42.68000 | 23.68608 | 3944 ft | 215 kts | 278° |
| 2026-04-30 20:35 | 42.68122 | 23.66575 | 3934 ft | 216 kts | 279° |
| 2026-04-30 20:35 | 42.68374 | 23.62559 | 3931 ft | 206 kts | 277° |
| 2026-04-30 20:36 | 42.68483 | 23.60724 | 3930 ft | 183 kts | 278° |
| 2026-04-30 20:36 | 42.68577 | 23.59101 | 3942 ft | 165 kts | 278° |
| 2026-04-30 20:36 | 42.68780 | 23.56006 | 3934 ft | 164 kts | 281° |
| 2026-04-30 20:37 | 42.68887 | 23.54442 | 3931 ft | 169 kts | 277° |
| 2026-04-30 20:37 | 42.68977 | 23.52846 | 3937 ft | 169 kts | 278° |
| 2026-04-30 20:37 | 42.69076 | 23.51254 | 3937 ft | 169 kts | 278° |
| 2026-04-30 20:37 | 42.69173 | 23.49661 | 3941 ft | 169 kts | 277° |
| 2026-04-30 20:38 | 42.69266 | 23.48063 | 3931 ft | 169 kts | 277° |
| 2026-04-30 20:38 | 42.69362 | 23.46466 | 3940 ft | 170 kts | 277° |
| 2026-04-30 20:38 | 42.69457 | 23.44887 | 3938 ft | 170 kts | 276° |
| 2026-04-30 20:39 | 42.69650 | 23.41665 | 3944 ft | 170 kts | 275° |
| 2026-04-30 20:39 | 42.69815 | 23.40078 | 3933 ft | 169 kts | 290° |
| 2026-04-30 20:39 | 42.70487 | 23.38846 | 3933 ft | 166 kts | 330° |
| 2026-04-30 20:40 | 42.72815 | 23.38522 | 4167 ft | 193 kts | 4° |
| 2026-04-30 20:40 | 42.74248 | 23.38699 | 4508 ft | 216 kts | 5° |
| 2026-04-30 20:40 | 42.75757 | 23.38887 | 5275 ft | 219 kts | 5° |
| 2026-04-30 20:41 | 42.78808 | 23.39271 | 5915 ft | 221 kts | 9° |
| 2026-04-30 20:41 | 42.80302 | 23.39772 | 5939 ft | 222 kts | 18° |
| 2026-04-30 20:41 | 42.81595 | 23.40888 | 5939 ft | 224 kts | 47° |
| 2026-04-30 20:41 | 42.82281 | 23.42791 | 5941 ft | 231 kts | 76° |
| 2026-04-30 20:42 | 42.82282 | 23.45005 | 5944 ft | 238 kts | 91° |
| 2026-04-30 20:42 | 42.82020 | 23.47242 | 5942 ft | 240 kts | 94° |
| 2026-04-30 20:42 | 42.81405 | 23.51709 | 5916 ft | 240 kts | 94° |
| 2026-04-30 20:43 | 42.81094 | 23.53940 | 5953 ft | 240 kts | 95° |
| 2026-04-30 20:43 | 42.80780 | 23.56177 | 5939 ft | 240 kts | 95° |
| 2026-04-30 20:43 | 42.80473 | 23.58381 | 5942 ft | 241 kts | 95° |
| 2026-04-30 20:44 | 42.79845 | 23.62861 | 5943 ft | 241 kts | 95° |
| 2026-04-30 20:44 | 42.79524 | 23.65095 | 5937 ft | 240 kts | 95° |
| 2026-04-30 20:44 | 42.78886 | 23.69623 | 5946 ft | 245 kts | 95° |
| 2026-04-30 20:45 | 42.78272 | 23.74194 | 5948 ft | 246 kts | 95° |
| 2026-04-30 20:45 | 42.77968 | 23.76487 | 5902 ft | 245 kts | 95° |
| 2026-04-30 20:45 | 42.77668 | 23.78707 | 5726 ft | 231 kts | 95° |
| 2026-04-30 20:46 | 42.76791 | 23.84995 | 4535 ft | 223 kts | 95° |
| 2026-04-30 20:46 | 42.76525 | 23.87038 | 4102 ft | 221 kts | 93° |
| 2026-04-30 20:47 | 42.76047 | 23.90638 | 4933 ft | 231 kts | 104° |
| 2026-04-30 20:47 | 42.75360 | 23.92541 | 5814 ft | 223 kts | 110° |
| 2026-04-30 20:48 | 42.74745 | 23.96523 | 5484 ft | 223 kts | 105° |
| 2026-04-30 20:48 | 42.73811 | 23.98221 | 5360 ft | 222 kts | 142° |
| 2026-04-30 20:48 | 42.72405 | 23.99042 | 6336 ft | 221 kts | 166° |
| 2026-04-30 20:48 | 42.70927 | 23.99739 | 6637 ft | 235 kts | 146° |
| 2026-04-30 20:49 | 42.69805 | 24.01375 | 7652 ft | 241 kts | 122° |
| 2026-04-30 20:49 | 42.68913 | 24.03395 | 8268 ft | 259 kts | 127° |
| 2026-04-30 20:49 | 42.67550 | 24.04970 | 9032 ft | 258 kts | 158° |
| 2026-04-30 20:50 | 42.64242 | 24.04875 | 10892 ft | 241 kts | 212° |
| 2026-04-30 20:50 | 42.63071 | 24.03337 | 11651 ft | 239 kts | 239° |
| 2026-04-30 20:50 | 42.62552 | 24.01151 | 12265 ft | 252 kts | 264° |
| 2026-04-30 20:50 | 42.62756 | 23.98766 | 13078 ft | 259 kts | 284° |
| 2026-04-30 20:51 | 42.63541 | 23.96545 | 13952 ft | 264 kts | 293° |
| 2026-04-30 20:51 | 42.65469 | 23.92236 | 15294 ft | 268 kts | 295° |
| 2026-04-30 20:51 | 42.66425 | 23.90137 | 15375 ft | 255 kts | 295° |
| 2026-04-30 20:52 | 42.67338 | 23.88144 | 15221 ft | 241 kts | 295° |
| 2026-04-30 20:52 | 42.68213 | 23.86266 | 15059 ft | 228 kts | 295° |
| 2026-04-30 20:52 | 42.69722 | 23.83002 | 14506 ft | 222 kts | 297° |
| 2026-04-30 20:53 | 42.70434 | 23.81126 | 13906 ft | 230 kts | 296° |
| 2026-04-30 20:53 | 42.71112 | 23.79193 | 13047 ft | 223 kts | 294° |
| 2026-04-30 20:53 | 42.71796 | 23.77287 | 12564 ft | 226 kts | 295° |
| 2026-04-30 20:54 | 42.73188 | 23.73479 | 11781 ft | 222 kts | 295° |
| 2026-04-30 20:54 | 42.73875 | 23.71603 | 11389 ft | 220 kts | 295° |
| 2026-04-30 20:54 | 42.74556 | 23.69741 | 10982 ft | 219 kts | 295° |
| 2026-04-30 20:55 | 42.75897 | 23.66073 | 10222 ft | 216 kts | 295° |
| 2026-04-30 20:55 | 42.76567 | 23.64242 | 9841 ft | 215 kts | 295° |
| 2026-04-30 20:55 | 42.77231 | 23.62424 | 9454 ft | 214 kts | 295° |
| 2026-04-30 20:56 | 42.78607 | 23.58874 | 8640 ft | 213 kts | 316° |
| 2026-04-30 20:56 | 42.79904 | 23.57958 | 8187 ft | 213 kts | 350° |
| 2026-04-30 20:56 | 42.82469 | 23.59452 | 7348 ft | 211 kts | 58° |
| 2026-04-30 20:57 | 42.82887 | 23.61343 | 6936 ft | 210 kts | 86° |
| 2026-04-30 20:57 | 42.82841 | 23.63325 | 6601 ft | 208 kts | 94° |
| 2026-04-30 20:57 | 42.82474 | 23.65216 | 6173 ft | 208 kts | 117° |
| 2026-04-30 20:58 | 42.80885 | 23.68482 | 5444 ft | 205 kts | 125° |
| 2026-04-30 20:58 | 42.80051 | 23.70058 | 5096 ft | 204 kts | 125° |
| 2026-04-30 20:58 | 42.79232 | 23.71600 | 4732 ft | 203 kts | 125° |
| 2026-04-30 20:58 | 42.78396 | 23.73174 | 4387 ft | 202 kts | 125° |
| 2026-04-30 20:59 | 42.76733 | 23.76190 | 4079 ft | 204 kts | 130° |
| 2026-04-30 20:59 | 42.75824 | 23.77759 | 4468 ft | 218 kts | 125° |
| 2026-04-30 21:00 | 42.74040 | 23.81161 | 4498 ft | 218 kts | 126° |
| 2026-04-30 21:00 | 42.71582 | 23.82781 | 4073 ft | 194 kts | 180° |
| 2026-04-30 21:01 | 42.69176 | 23.81654 | 3710 ft | 190 kts | 233° |
| 2026-04-30 21:01 | 42.68749 | 23.79988 | 3699 ft | 189 kts | 265° |
| 2026-04-30 21:01 | 42.68892 | 23.76641 | 3698 ft | 192 kts | 275° |
| 2026-04-30 21:02 | 42.68797 | 23.74862 | 3698 ft | 189 kts | 250° |
| 2026-04-30 21:02 | 42.68399 | 23.73158 | 3710 ft | 190 kts | 256° |
| 2026-04-30 21:02 | 42.68131 | 23.71396 | 3703 ft | 190 kts | 258° |
| 2026-04-30 21:02 | 42.68017 | 23.69606 | 3699 ft | 191 kts | 270° |
| 2026-04-30 21:03 | 42.68101 | 23.67807 | 3700 ft | 190 kts | 274° |
| 2026-04-30 21:03 | 42.68207 | 23.66010 | 3700 ft | 190 kts | 273° |
| 2026-04-30 21:03 | 42.68308 | 23.64216 | 3703 ft | 190 kts | 273° |
| 2026-04-30 21:03 | 42.68409 | 23.62424 | 3707 ft | 190 kts | 273° |
| 2026-04-30 21:04 | 42.68511 | 23.60640 | 3701 ft | 190 kts | 273° |
| 2026-04-30 21:04 | 42.68618 | 23.58849 | 3697 ft | 189 kts | 273° |
| 2026-04-30 21:04 | 42.68829 | 23.55448 | 3472 ft | 171 kts | 274° |
| 2026-04-30 21:05 | 42.68923 | 23.53887 | 3217 ft | 161 kts | 273° |
| 2026-04-30 21:05 | 42.69011 | 23.52384 | 2997 ft | 159 kts | 273° |
| 2026-04-30 21:05 | 42.69100 | 23.50884 | 2781 ft | 159 kts | 274° |
| 2026-04-30 21:05 | 42.69190 | 23.49383 | 2566 ft | 159 kts | 273° |
| 2026-04-30 21:06 | 42.69277 | 23.47902 | 2340 ft | 159 kts | 274° |
| 2026-04-30 21:06 | 42.69356 | 23.46406 | 2124 ft | 158 kts | 272° |
| 2026-04-30 21:06 | 42.69453 | 23.44916 | 1922 ft | 158 kts | 274° |
| 2026-04-30 21:06 | 42.69546 | 23.43423 | 1789 ft | 159 kts | 273° |
| 2026-04-30 21:07 | 42.69620 | 23.41936 | 1746 ft | 152 kts | 272° |
| 2026-04-30 21:07 | 42.69701 | 23.40752 | 1743 ft | 100 kts | 275° |
| 2026-04-30 21:07 | 42.69744 | 23.40056 | 1750 ft | 47 kts | 275° |
| 2026-04-30 21:07 | 42.69757 | 23.39851 | 1751 ft | 19 kts | 275° |
| 2026-04-30 21:08 | 42.69764 | 23.39728 | 1747 ft | 20 kts | 275° |
| 2026-04-30 21:08 | 42.69702 | 23.39597 | 1743 ft | 18 kts | 191° |
| 2026-04-30 21:08 | 42.69571 | 23.39580 | 1747 ft | 19 kts | 184° |
| 2026-04-30 21:08 | 42.69434 | 23.39566 | 1746 ft | 20 kts | 184° |
| 2026-04-30 21:09 | 42.69313 | 23.39617 | 1743 ft | 19 kts | 106° |
| 2026-04-30 21:09 | 42.69282 | 23.39799 | 1745 ft | 20 kts | 105° |
| 2026-04-30 21:09 | 42.69243 | 23.39987 | 1746 ft | 21 kts | 105° |
| 2026-04-30 21:09 | 42.69205 | 23.40142 | 1743 ft | 15 kts | 122° |